createdAt,value
2019-05-26T00:02:14.374Z,30.10
2019-05-26T00:04:42.767Z,29.63
2019-05-26T00:07:11.173Z,30.43
2019-05-26T00:09:39.576Z,30.20
2019-05-26T00:12:07.979Z,31.13
2019-05-26T00:14:36.442Z,29.63
2019-05-26T00:17:04.931Z,29.33
2019-05-26T00:19:33.344Z,30.57
2019-05-26T00:22:01.765Z,30.67
2019-05-26T00:24:30.167Z,29.17
2019-05-26T00:26:58.583Z,29.33
2019-05-26T00:29:26.973Z,31.40
2019-05-26T00:31:55.447Z,28.97
2019-05-26T00:34:23.849Z,30.00
2019-05-26T00:36:52.271Z,29.30
2019-05-26T00:39:20.661Z,30.03
2019-05-26T00:41:49.179Z,29.67
2019-05-26T00:44:17.553Z,30.83
2019-05-26T00:46:46.030Z,31.97
2019-05-26T00:49:14.422Z,30.37
2019-05-26T00:51:42.847Z,30.07
2019-05-26T00:54:11.256Z,32.03
2019-05-26T00:56:39.725Z,29.10
2019-05-26T00:59:08.209Z,29.97
2019-05-26T01:01:36.629Z,31.67
2019-05-26T01:04:05.078Z,30.00
2019-05-26T01:06:33.473Z,29.00
2019-05-26T01:09:01.894Z,28.13
2019-05-26T01:11:30.285Z,25.77
2019-05-26T01:13:58.709Z,25.93
2019-05-26T01:16:27.098Z,26.27
2019-05-26T01:18:55.514Z,26.57
2019-05-26T01:21:23.981Z,28.30
2019-05-26T01:23:52.385Z,26.37
2019-05-26T01:26:20.802Z,26.23
2019-05-26T01:28:49.212Z,27.90
2019-05-26T01:31:17.601Z,27.00
2019-05-26T01:33:46.018Z,27.47
2019-05-26T01:36:14.487Z,26.80
2019-05-26T01:38:43.134Z,24.70
2019-05-26T01:41:11.532Z,24.83
2019-05-26T01:43:39.951Z,27.20
2019-05-26T01:46:08.415Z,26.43
2019-05-26T01:48:36.841Z,26.03
2019-05-26T01:51:05.230Z,25.17
2019-05-26T01:53:33.647Z,26.73
2019-05-26T01:56:02.034Z,27.67
2019-05-26T01:58:30.449Z,28.40
2019-05-26T02:00:58.878Z,26.17
2019-05-26T02:03:27.348Z,27.63
2019-05-26T02:05:55.731Z,26.93
2019-05-26T02:08:38.399Z,25.83
2019-05-26T02:10:54.260Z,26.83
2019-05-26T02:13:22.716Z,27.57
2019-05-26T02:15:51.109Z,26.27
2019-05-26T02:18:19.510Z,28.60
2019-05-26T02:20:47.918Z,25.77
2019-05-26T02:23:16.487Z,26.30
2019-05-26T02:25:44.900Z,24.70
2019-05-26T02:28:13.298Z,25.20
2019-05-26T02:30:41.713Z,22.97
2019-05-26T02:33:10.116Z,22.50
2019-05-26T02:35:38.506Z,21.63
2019-05-26T02:38:07.019Z,24.33
2019-05-26T02:40:35.431Z,22.93
2019-05-26T02:43:03.810Z,23.00
2019-05-26T02:45:32.306Z,22.87
2019-05-26T02:48:00.710Z,23.97
2019-05-26T02:50:29.113Z,23.83
2019-05-26T02:52:57.607Z,23.20
2019-05-26T02:55:26.117Z,21.40
2019-05-26T02:57:54.515Z,22.50
2019-05-26T03:00:43.296Z,24.83
2019-05-26T03:03:13.346Z,25.40
2019-05-26T03:05:44.261Z,23.77
2019-05-26T03:08:15.019Z,23.60
2019-05-26T03:10:43.681Z,23.67
2019-05-26T03:13:14.219Z,27.90
2019-05-26T03:15:44.733Z,24.47
2019-05-26T03:18:13.227Z,26.83
2019-05-26T03:20:41.969Z,28.27
2019-05-26T03:23:10.598Z,28.70
2019-05-26T03:25:39.361Z,30.23
2019-05-26T03:28:08.192Z,26.10
2019-05-26T03:30:37.154Z,24.80
2019-05-26T03:33:05.693Z,26.13
2019-05-26T03:35:34.165Z,26.20
2019-05-26T03:38:02.588Z,25.93
2019-05-26T03:40:31.067Z,26.33
2019-05-26T03:42:59.480Z,24.30
2019-05-26T03:45:43.207Z,24.10
2019-05-26T03:48:11.831Z,22.83
2019-05-26T03:50:40.244Z,23.30
2019-05-26T03:53:08.793Z,24.83
2019-05-26T03:55:37.199Z,23.30
2019-05-26T03:58:05.662Z,25.23
2019-05-26T04:00:34.067Z,24.97
2019-05-26T04:03:03.236Z,25.70
2019-05-26T04:05:31.661Z,25.03
2019-05-26T04:08:04.536Z,23.03
2019-05-26T04:10:30.181Z,22.57
2019-05-26T04:12:58.609Z,22.57
2019-05-26T04:15:27.005Z,23.23
2019-05-26T04:17:55.492Z,22.80
2019-05-26T04:20:24.016Z,25.37
2019-05-26T04:22:52.490Z,23.20
2019-05-26T04:25:20.879Z,24.90
2019-05-26T04:27:49.295Z,25.50
2019-05-26T04:30:17.827Z,24.83
2019-05-26T04:32:46.324Z,25.67
2019-05-26T04:35:14.778Z,24.40
2019-05-26T04:37:43.307Z,25.73
2019-05-26T04:40:25.834Z,24.30
2019-05-26T04:42:41.904Z,22.10
2019-05-26T04:45:10.852Z,23.00
2019-05-26T04:47:39.256Z,21.50
2019-05-26T04:50:08.708Z,23.17
2019-05-26T04:52:37.115Z,22.47
2019-05-26T04:55:08.751Z,19.27
2019-05-26T04:57:37.155Z,18.73
2019-05-26T05:00:06.688Z,20.93
2019-05-26T05:02:35.100Z,20.93
2019-05-26T05:05:07.291Z,21.57
2019-05-26T05:07:35.711Z,20.10
2019-05-26T05:10:05.449Z,19.37
2019-05-26T05:12:33.862Z,17.70
2019-05-26T05:15:02.254Z,19.83
2019-05-26T05:17:30.676Z,19.63
2019-05-26T05:19:59.094Z,17.00
2019-05-26T05:22:27.503Z,15.83
2019-05-26T05:24:55.908Z,17.90
2019-05-26T05:27:24.387Z,16.53
2019-05-26T05:29:52.792Z,16.13
2019-05-26T05:32:21.208Z,15.70
2019-05-26T05:34:49.626Z,13.83
2019-05-26T05:37:18.104Z,14.57
2019-05-26T05:39:46.515Z,14.50
2019-05-26T05:42:14.931Z,15.57
2019-05-26T05:44:43.331Z,14.70
2019-05-26T05:47:11.839Z,13.50
2019-05-26T05:49:40.296Z,15.20
2019-05-26T05:52:08.698Z,14.43
2019-05-26T05:54:37.112Z,13.83
2019-05-26T05:57:05.520Z,14.27
2019-05-26T05:59:33.915Z,14.37
2019-05-26T06:02:02.348Z,15.57
2019-05-26T06:04:30.737Z,14.57
2019-05-26T06:06:59.157Z,15.40
2019-05-26T06:09:27.561Z,14.80
2019-05-26T06:11:57.019Z,15.37
2019-05-26T06:14:25.865Z,14.20
2019-05-26T06:16:54.289Z,15.07
2019-05-26T06:19:22.702Z,14.97
2019-05-26T06:21:51.269Z,14.33
2019-05-26T06:24:19.800Z,13.97
2019-05-26T06:26:48.212Z,15.80
2019-05-26T06:29:16.611Z,16.50
2019-05-26T06:31:45.417Z,14.60
2019-05-26T06:34:14.060Z,14.70
2019-05-26T06:36:42.475Z,14.60
2019-05-26T06:39:10.869Z,15.07
2019-05-26T06:41:39.273Z,15.40
2019-05-26T06:44:07.698Z,15.40
2019-05-26T06:46:36.103Z,13.50
2019-05-26T06:49:04.689Z,13.70
2019-05-26T06:51:33.099Z,12.50
2019-05-26T06:54:01.497Z,13.10
2019-05-26T06:56:29.896Z,13.10
2019-05-26T06:59:02.533Z,12.63
2019-05-26T07:01:28.442Z,13.60
2019-05-26T07:03:56.871Z,12.53
2019-05-26T07:06:25.271Z,12.60
2019-05-26T07:08:53.696Z,13.47
2019-05-26T07:11:22.091Z,12.63
2019-05-26T07:13:50.494Z,11.07
2019-05-26T07:16:18.898Z,11.30
2019-05-26T07:18:48.041Z,11.17
2019-05-26T07:21:16.453Z,12.20
2019-05-26T07:23:44.884Z,13.30
2019-05-26T07:26:13.273Z,12.73
2019-05-26T07:28:41.682Z,13.40
2019-05-26T07:31:10.086Z,13.43
2019-05-26T07:33:38.486Z,12.30
2019-05-26T07:36:06.896Z,13.17
2019-05-26T07:38:35.298Z,13.00
2019-05-26T07:41:03.700Z,12.43
2019-05-26T07:43:32.110Z,13.40
2019-05-26T07:46:00.520Z,11.70
2019-05-26T07:48:28.997Z,12.33
2019-05-26T07:50:57.393Z,13.13
2019-05-26T07:53:25.806Z,11.20
2019-05-26T07:55:54.197Z,12.97
2019-05-26T07:58:22.611Z,13.10
2019-05-26T08:00:51.094Z,13.37
2019-05-26T08:03:19.527Z,12.90
2019-05-26T08:05:47.922Z,13.17
2019-05-26T08:08:18.274Z,13.60
2019-05-26T08:10:46.680Z,13.77
2019-05-26T08:13:15.095Z,13.10
2019-05-26T08:15:43.759Z,12.80
2019-05-26T08:18:12.170Z,12.63
2019-05-26T08:20:42.212Z,12.30
2019-05-26T08:23:10.627Z,11.23
2019-05-26T08:25:39.018Z,12.50
2019-05-26T08:28:07.432Z,11.20
2019-05-26T08:30:35.818Z,13.10
2019-05-26T08:33:04.309Z,13.90
2019-05-26T08:35:32.721Z,12.57
2019-05-26T08:38:01.125Z,13.87
2019-05-26T08:40:29.534Z,11.63
2019-05-26T08:42:57.989Z,11.37
2019-05-26T08:45:26.392Z,11.47
2019-05-26T08:47:54.806Z,11.13
2019-05-26T08:50:23.375Z,10.07
2019-05-26T08:52:51.772Z,11.20
2019-05-26T08:55:21.037Z,10.33
2019-05-26T08:57:49.424Z,10.53
2019-05-26T09:00:18.471Z,10.33
2019-05-26T09:02:46.874Z,10.93
2019-05-26T09:05:16.742Z,10.27
2019-05-26T09:07:45.874Z,10.53
2019-05-26T09:10:14.538Z,10.70
2019-05-26T09:12:43.003Z,10.13
2019-05-26T09:15:11.732Z,10.30
2019-05-26T09:17:40.357Z,10.10
2019-05-26T09:20:11.643Z,10.20
2019-05-26T09:22:40.085Z,9.90
2019-05-26T09:25:08.998Z,9.33
2019-05-26T09:27:37.410Z,9.63
2019-05-26T09:30:07.814Z,9.57
2019-05-26T09:32:36.544Z,8.77
2019-05-26T09:35:07.020Z,9.17
2019-05-26T09:37:35.453Z,8.40
2019-05-26T09:40:06.634Z,8.80
2019-05-26T09:42:35.274Z,9.30
2019-05-26T09:45:07.676Z,8.30
2019-05-26T09:47:36.272Z,8.77
2019-05-26T09:50:08.139Z,8.17
2019-05-26T09:52:37.378Z,8.60
2019-05-26T09:55:08.003Z,8.90
2019-05-26T09:57:36.905Z,8.23
2019-05-26T10:00:10.024Z,9.40
2019-05-26T10:02:38.596Z,8.50
2019-05-26T10:05:07.613Z,8.43
2019-05-26T10:07:36.038Z,8.00
2019-05-26T10:10:08.424Z,9.53
2019-05-26T10:12:37.233Z,8.07
2019-05-26T10:15:10.071Z,8.00
2019-05-26T10:17:38.660Z,7.20
2019-05-26T10:20:09.277Z,8.47
2019-05-26T10:22:37.854Z,8.77
2019-05-26T10:25:09.890Z,7.97
2019-05-26T10:27:38.715Z,8.63
2019-05-26T10:30:09.227Z,7.63
2019-05-26T10:32:37.690Z,7.90
2019-05-26T10:35:07.301Z,7.77
2019-05-26T10:37:35.946Z,8.20
2019-05-26T10:40:05.857Z,7.80
2019-05-26T10:42:34.565Z,7.23
2019-05-26T10:45:04.416Z,6.83
2019-05-26T10:47:32.827Z,6.77
2019-05-26T10:50:01.321Z,7.77
2019-05-26T10:52:29.993Z,7.20
2019-05-26T10:54:58.791Z,5.50
2019-05-26T10:57:27.397Z,5.90
2019-05-26T10:59:57.856Z,6.47
2019-05-26T11:02:26.560Z,6.97
2019-05-26T11:04:55.141Z,6.30
2019-05-26T11:07:26.777Z,6.70
2019-05-26T11:09:53.913Z,7.03
2019-05-26T11:12:22.414Z,7.00
2019-05-26T11:14:50.859Z,6.17
2019-05-26T11:17:19.286Z,5.80
2019-05-26T11:19:47.730Z,5.60
2019-05-26T11:22:16.537Z,6.43
2019-05-26T11:24:44.954Z,5.27
2019-05-26T11:27:14.563Z,5.67
2019-05-26T11:29:43.491Z,4.40
2019-05-26T11:32:11.963Z,3.90
2019-05-26T11:34:40.421Z,4.60
2019-05-26T11:37:09.585Z,4.40
2019-05-26T11:39:38.121Z,4.27
2019-05-26T11:42:13.391Z,4.27
2019-05-26T11:44:36.801Z,4.40
2019-05-26T11:47:05.215Z,3.80
2019-05-26T11:49:33.683Z,4.57
2019-05-26T11:52:02.082Z,4.30
2019-05-26T11:54:33.765Z,4.17
2019-05-26T11:57:00.631Z,4.27
2019-05-26T11:59:29.020Z,4.30
2019-05-26T12:01:57.453Z,4.70
2019-05-26T12:04:25.851Z,4.00
2019-05-26T12:06:54.249Z,3.93
2019-05-26T12:09:22.652Z,4.67
2019-05-26T12:11:51.097Z,5.43
2019-05-26T12:14:33.405Z,4.97
2019-05-26T12:16:49.683Z,4.67
2019-05-26T12:19:18.069Z,4.87
2019-05-26T12:21:46.487Z,5.17
2019-05-26T12:24:14.873Z,5.70
2019-05-26T12:26:43.283Z,5.97
2019-05-26T12:29:11.667Z,5.43
2019-05-26T12:31:40.080Z,6.60
2019-05-26T12:34:08.476Z,4.47
2019-05-26T12:36:39.183Z,4.90
2019-05-26T12:39:09.051Z,3.67
2019-05-26T12:41:37.742Z,4.40
2019-05-26T12:44:06.293Z,5.40
2019-05-26T12:46:34.686Z,5.50
2019-05-26T12:49:03.107Z,6.20
2019-05-26T12:51:31.765Z,6.50
2019-05-26T12:54:00.373Z,5.87
2019-05-26T12:56:28.871Z,4.70
2019-05-26T12:58:57.442Z,4.37
2019-05-26T13:01:26.110Z,7.07
2019-05-26T13:03:54.663Z,5.40
2019-05-26T13:06:23.066Z,5.97
2019-05-26T13:08:51.562Z,6.40
2019-05-26T13:11:22.760Z,4.80
2019-05-26T13:13:50.291Z,4.70
2019-05-26T13:16:18.696Z,5.50
2019-05-26T13:18:47.177Z,4.77
2019-05-26T13:21:15.884Z,4.73
2019-05-26T13:23:44.463Z,5.57
2019-05-26T13:26:12.932Z,5.53
2019-05-26T13:28:41.435Z,4.50
2019-05-26T13:31:10.008Z,4.43
2019-05-26T13:33:38.406Z,4.90
2019-05-26T13:36:06.808Z,4.97
2019-05-26T13:38:35.380Z,4.97
2019-05-26T13:41:03.952Z,3.87
2019-05-26T13:43:32.527Z,5.27
2019-05-26T13:46:00.939Z,5.50
2019-05-26T13:48:29.335Z,5.77
2019-05-26T13:50:57.737Z,5.00
2019-05-26T13:53:26.241Z,4.60
2019-05-26T13:55:54.629Z,5.63
2019-05-26T13:58:23.031Z,5.90
2019-05-26T14:00:51.446Z,5.87
2019-05-26T14:03:19.865Z,4.80
2019-05-26T14:05:48.261Z,4.17
2019-05-26T14:08:16.689Z,4.07
2019-05-26T14:10:45.097Z,5.47
2019-05-26T14:13:13.485Z,6.20
2019-05-26T14:15:41.903Z,5.33
2019-05-26T14:18:10.358Z,5.50
2019-05-26T14:20:40.698Z,5.03
2019-05-26T14:23:09.831Z,5.63
2019-05-26T14:25:38.387Z,4.43
2019-05-26T14:28:07.507Z,4.07
2019-05-26T14:30:36.240Z,3.80
2019-05-26T14:33:05.291Z,4.17
2019-05-26T14:35:33.689Z,4.03
2019-05-26T14:38:02.112Z,4.13
2019-05-26T14:40:30.507Z,4.00
2019-05-26T14:42:58.903Z,3.87
2019-05-26T14:45:27.295Z,3.50
2019-05-26T14:47:55.772Z,4.23
2019-05-26T14:50:24.938Z,4.00
2019-05-26T14:52:53.376Z,3.23
2019-05-26T14:55:21.778Z,3.60
2019-05-26T14:57:50.266Z,3.40
2019-05-26T15:00:20.688Z,3.63
2019-05-26T15:02:49.117Z,3.33
2019-05-26T15:05:17.831Z,3.80
2019-05-26T15:07:46.261Z,3.50
2019-05-26T15:10:15.007Z,3.20
2019-05-26T15:12:43.552Z,3.53
2019-05-26T15:15:12.580Z,3.43
2019-05-26T15:17:40.972Z,3.00
2019-05-26T15:20:09.612Z,2.93
2019-05-26T15:22:38.059Z,3.00
2019-05-26T15:25:07.083Z,2.33
2019-05-26T15:27:35.840Z,2.77
2019-05-26T15:30:07.053Z,3.00
2019-05-26T15:32:35.525Z,2.70
2019-05-26T15:35:06.315Z,2.37
2019-05-26T15:37:34.789Z,2.87
2019-05-26T15:40:04.963Z,2.57
2019-05-26T15:42:33.349Z,3.20
2019-05-26T15:45:01.772Z,3.10
2019-05-26T15:47:30.151Z,2.60
2019-05-26T15:49:58.838Z,2.73
2019-05-26T15:52:27.210Z,2.73
2019-05-26T15:54:55.624Z,2.57
2019-05-26T15:57:24.078Z,2.27
2019-05-26T15:59:54.512Z,3.30
2019-05-26T16:02:22.604Z,2.60
2019-05-26T16:04:51.055Z,3.00
2019-05-26T16:07:19.483Z,2.53
2019-05-26T16:09:47.907Z,3.50
2019-05-26T16:12:16.303Z,2.50
2019-05-26T16:14:44.720Z,2.73
2019-05-26T16:17:13.133Z,2.70
2019-05-26T16:19:41.517Z,6.67
2019-05-26T16:22:09.935Z,3.10
2019-05-26T16:24:38.368Z,6.23
2019-05-26T16:27:18.701Z,4.87
2019-05-26T16:29:36.934Z,5.00
2019-05-26T16:32:05.355Z,3.30
2019-05-26T16:34:33.756Z,3.40
2019-05-26T16:37:02.154Z,3.27
2019-05-26T16:39:36.951Z,3.17
2019-05-26T16:42:00.760Z,2.80
2019-05-26T16:44:29.172Z,3.40
2019-05-26T16:46:57.729Z,2.60
2019-05-26T16:49:26.170Z,2.37
2019-05-26T16:51:54.554Z,2.57
2019-05-26T16:54:22.951Z,2.87
2019-05-26T16:56:51.371Z,2.50
2019-05-26T16:59:19.780Z,2.60
2019-05-26T17:01:48.191Z,2.30
2019-05-26T17:04:16.585Z,2.67
2019-05-26T17:06:44.999Z,2.70
2019-05-26T17:09:13.397Z,2.90
2019-05-26T17:11:41.812Z,2.90
2019-05-26T17:14:10.229Z,2.50
2019-05-26T17:16:39.061Z,2.47
2019-05-26T17:19:07.598Z,2.30
2019-05-26T17:21:36.003Z,2.50
2019-05-26T17:24:04.569Z,2.60
2019-05-26T17:26:33.029Z,3.13
2019-05-26T17:29:01.428Z,2.77
2019-05-26T17:31:29.825Z,2.33
2019-05-26T17:33:58.234Z,2.53
2019-05-26T17:36:26.647Z,2.70
2019-05-26T17:38:55.027Z,2.30
2019-05-26T17:41:23.444Z,2.57
2019-05-26T17:43:51.835Z,2.30
2019-05-26T17:46:20.248Z,2.10
2019-05-26T17:48:48.644Z,2.87
2019-05-26T17:51:17.046Z,2.27
2019-05-26T17:53:45.452Z,2.63
2019-05-26T17:56:13.862Z,3.20
2019-05-26T17:58:42.288Z,2.27
2019-05-26T18:01:10.722Z,2.67
2019-05-26T18:03:39.165Z,3.63
2019-05-26T18:06:07.636Z,2.90
2019-05-26T18:08:36.699Z,2.20
2019-05-26T18:11:05.655Z,2.40
2019-05-26T18:13:34.059Z,2.30
2019-05-26T18:16:02.551Z,3.03
2019-05-26T18:18:31.159Z,2.60
2019-05-26T18:20:59.562Z,2.50
2019-05-26T18:23:27.974Z,2.60
2019-05-26T18:25:56.947Z,2.97
2019-05-26T18:28:25.354Z,3.07
2019-05-26T18:30:53.755Z,2.80
2019-05-26T18:33:22.222Z,2.70
2019-05-26T18:35:50.631Z,2.97
2019-05-26T18:38:19.049Z,2.73
2019-05-26T18:40:47.433Z,2.90
2019-05-26T18:43:15.853Z,6.70
2019-05-26T18:45:44.251Z,4.67
2019-05-26T18:48:12.674Z,4.07
2019-05-26T18:50:41.087Z,2.27
2019-05-26T18:53:09.498Z,2.53
2019-05-26T18:55:37.878Z,2.90
2019-05-26T18:58:06.296Z,3.30
2019-05-26T19:00:34.686Z,2.20
2019-05-26T19:03:03.171Z,2.63
2019-05-26T19:05:35.875Z,3.00
2019-05-26T19:08:01.688Z,2.40
2019-05-26T19:10:30.098Z,2.60
2019-05-26T19:12:58.507Z,2.30
2019-05-26T19:15:26.910Z,2.43
2019-05-26T19:17:55.588Z,2.67
2019-05-26T19:20:24.333Z,2.63
2019-05-26T19:22:53.483Z,2.40
2019-05-26T19:25:22.023Z,2.27
2019-05-26T19:27:50.425Z,2.57
2019-05-26T19:30:19.667Z,3.03
2019-05-26T19:32:48.089Z,3.40
2019-05-26T19:35:16.853Z,3.30
2019-05-26T19:37:45.253Z,3.00
2019-05-26T19:40:14.004Z,3.47
2019-05-26T19:42:42.409Z,3.30
2019-05-26T19:45:10.997Z,4.73
2019-05-26T19:47:39.391Z,3.23
2019-05-26T19:50:08.061Z,3.20
2019-05-26T19:52:36.507Z,3.40
2019-05-26T19:55:07.747Z,3.70
2019-05-26T19:57:36.201Z,3.30
2019-05-26T20:00:12.692Z,3.00
2019-05-26T20:02:41.141Z,5.20
2019-05-26T20:05:10.082Z,8.60
2019-05-26T20:07:38.495Z,15.73
2019-05-26T20:10:08.156Z,25.27
2019-05-26T20:12:36.613Z,29.47
2019-05-26T20:15:06.164Z,29.83
2019-05-26T20:17:34.558Z,27.47
2019-05-26T20:20:03.358Z,26.30
2019-05-26T20:22:31.773Z,24.27
2019-05-26T20:25:00.250Z,20.73
2019-05-26T20:27:28.645Z,17.27
2019-05-26T20:29:57.060Z,13.70
2019-05-26T20:32:25.445Z,10.80
2019-05-26T20:34:53.863Z,9.63
2019-05-26T20:37:22.266Z,9.80
2019-05-26T20:39:50.674Z,9.00
2019-05-26T20:42:19.095Z,8.60
2019-05-26T20:44:47.512Z,6.93
2019-05-26T20:47:15.915Z,5.30
2019-05-26T20:49:45.639Z,4.73
2019-05-26T20:52:14.390Z,5.00
2019-05-26T20:54:42.813Z,4.63
2019-05-26T20:57:11.204Z,4.07
2019-05-26T20:59:39.628Z,4.83
2019-05-26T21:02:08.026Z,4.47
2019-05-26T21:04:36.428Z,4.33
2019-05-26T21:07:04.962Z,4.20
2019-05-26T21:09:33.367Z,4.27
2019-05-26T21:12:01.787Z,4.70
2019-05-26T21:14:30.174Z,4.50
2019-05-26T21:16:58.587Z,4.37
2019-05-26T21:19:27.247Z,5.07
2019-05-26T21:21:55.738Z,4.60
2019-05-26T21:24:24.136Z,3.90
2019-05-26T21:26:52.550Z,4.60
2019-05-26T21:29:21.025Z,4.30
2019-05-26T21:31:49.439Z,4.50
2019-05-26T21:34:17.856Z,4.20
2019-05-26T21:36:46.323Z,4.13
2019-05-26T21:39:14.713Z,4.03
2019-05-26T21:41:43.121Z,4.77
2019-05-26T21:44:11.560Z,5.63
2019-05-26T21:46:40.029Z,6.63
2019-05-26T21:49:08.431Z,5.53
2019-05-26T21:51:36.842Z,5.13
2019-05-26T21:54:05.239Z,5.00
2019-05-26T21:56:33.642Z,4.47
2019-05-26T21:59:02.030Z,5.50
2019-05-26T22:01:30.503Z,4.83
2019-05-26T22:03:58.899Z,4.70
2019-05-26T22:06:27.322Z,5.00
2019-05-26T22:08:55.716Z,4.47
2019-05-26T22:11:24.127Z,4.50
2019-05-26T22:13:52.525Z,4.93
2019-05-26T22:16:20.947Z,3.90
2019-05-26T22:18:49.349Z,4.73
2019-05-26T22:21:17.760Z,4.70
2019-05-26T22:23:46.163Z,4.03
2019-05-26T22:26:14.649Z,5.20
2019-05-26T22:28:43.028Z,5.13
2019-05-26T22:31:11.441Z,4.70
2019-05-26T22:33:39.899Z,5.27
2019-05-26T22:36:08.297Z,4.80
2019-05-26T22:38:36.706Z,4.57
2019-05-26T22:41:05.174Z,5.10
2019-05-26T22:43:33.598Z,5.40
2019-05-26T22:46:01.990Z,4.73
2019-05-26T22:48:30.399Z,6.50
2019-05-26T22:50:58.836Z,5.33
2019-05-26T22:53:27.278Z,5.30
2019-05-26T22:55:55.671Z,5.50
2019-05-26T22:58:24.087Z,6.37
2019-05-26T23:00:52.483Z,4.80
2019-05-26T23:03:20.891Z,5.10
2019-05-26T23:05:49.288Z,5.23
2019-05-26T23:08:17.681Z,5.60
2019-05-26T23:10:46.072Z,4.97
2019-05-26T23:13:14.474Z,4.60
2019-05-26T23:15:42.891Z,5.40
2019-05-26T23:18:11.289Z,4.63
2019-05-26T23:20:39.691Z,5.50
2019-05-26T23:23:08.093Z,5.30
2019-05-26T23:25:38.433Z,5.80
2019-05-26T23:28:06.928Z,5.33
2019-05-26T23:30:35.339Z,6.43
2019-05-26T23:33:03.751Z,5.33
2019-05-26T23:35:32.138Z,5.27
2019-05-26T23:38:00.547Z,5.70
2019-05-26T23:40:28.957Z,5.33
2019-05-26T23:42:57.346Z,5.70
2019-05-26T23:45:25.755Z,7.07
2019-05-26T23:47:54.161Z,5.43
2019-05-26T23:50:22.579Z,5.70
2019-05-26T23:52:51.000Z,6.27
2019-05-26T23:55:19.453Z,5.17
2019-05-26T23:57:47.872Z,5.73
